KTKX

Kennett Memorial Airport

Kennett, Missouri, USA
METAR KTKX 170015Z AUTO 27004KT 10SM CLR 07/06 A3022 RMK AO2
Observed Flight Rules
Dec-17 @ 00:15 UTC (9 minutes ago) Visual Flight Rules
Wind Visibility Clouds
270° at 4 knots 10 miles
  • Clear skies
Temperatures Readings
Current 7°C / 45°F
Dewpoint 6°C / 43°F
Humidity 93%
Altimeter 30.22" Hg
Pressure 1023 hPa
Elevation 80
METAR KTKX 170015Z AUTO 27004KT 10SM CLR 07/06 A3022 RMK AO2
Observed Flight Rules
Dec-17 @ 00:15 UTC
(9 minutes ago)
VFR
Wind Visibility
270° at 4 knots 10 miles
Clouds
  • Clear skies
Temperature Dewpoint
7°C / 45°F 6°C / 43°F
Humidity Altimeter Pressure
93% 30.22" Hg 1023 hPa